createdAt,value
2023-03-13T00:01:49.659Z,97557.31
2023-03-13T00:06:52.107Z,97554.53
2023-03-13T00:11:54.746Z,97549.59
2023-03-13T00:16:57.329Z,97542.22
2023-03-13T00:21:59.982Z,97539.16
2023-03-13T00:27:05.236Z,97542.78
2023-03-13T00:32:07.900Z,97544.28
2023-03-13T00:37:10.342Z,97531.41
2023-03-13T00:42:12.762Z,97534.41
2023-03-13T00:47:15.198Z,97516.16
2023-03-13T00:52:19.331Z,97521.41
2023-03-13T00:57:21.930Z,97514.16
2023-03-13T01:02:24.499Z,97509.41
2023-03-13T01:07:27.552Z,97488.88
2023-03-13T01:12:30.598Z,97486.38
2023-03-13T01:17:33.221Z,97480.44
2023-03-13T01:22:35.731Z,97463.97
2023-03-13T01:27:38.163Z,97452.94
2023-03-13T01:32:41.264Z,97449.19
2023-03-13T01:37:43.676Z,97441.75
2023-03-13T01:43:00.431Z,97425.88
2023-03-13T01:48:05.167Z,97417.50
2023-03-13T01:53:21.839Z,97406.56
2023-03-13T01:58:25.291Z,97402.16
2023-03-13T02:03:29.636Z,97387.97
2023-03-13T02:08:45.189Z,97379.72
2023-03-13T02:13:50.216Z,97369.53
2023-03-13T02:18:52.963Z,97371.53
2023-03-13T02:24:13.025Z,97374.22
2023-03-13T02:29:18.666Z,97369.94
2023-03-13T02:34:27.801Z,97368.69
2023-03-13T02:39:34.215Z,97352.31
2023-03-13T02:44:41.496Z,97340.28
2023-03-13T02:49:45.015Z,97327.00
2023-03-13T02:54:51.639Z,97313.75
2023-03-13T02:59:56.091Z,97305.19
2023-03-13T03:04:59.042Z,97296.41
2023-03-13T03:10:01.644Z,97283.16
2023-03-13T03:15:05.143Z,97273.94
2023-03-13T03:20:12.190Z,97272.41
2023-03-13T03:25:18.162Z,97270.47
2023-03-13T03:30:23.085Z,97261.66
2023-03-13T03:35:27.413Z,97255.38
2023-03-13T03:40:30.382Z,97249.94
2023-03-13T03:45:33.011Z,97249.72
2023-03-13T03:50:35.659Z,97243.63
2023-03-13T03:55:38.039Z,97247.22
2023-03-13T04:00:43.693Z,97250.13
2023-03-13T04:05:45.895Z,97246.91
2023-03-13T04:10:49.460Z,97232.16
2023-03-13T04:15:53.290Z,97236.63
2023-03-13T04:21:02.842Z,97233.41
2023-03-13T04:26:08.005Z,97224.31
2023-03-13T04:31:11.194Z,97216.88
2023-03-13T04:36:31.857Z,97206.47
2023-03-13T04:41:49.367Z,97192.13
2023-03-13T04:47:21.461Z,97213.00
2023-03-13T04:52:38.095Z,97213.28
2023-03-13T04:58:00.730Z,97216.66
2023-03-13T05:03:21.775Z,97209.06
2023-03-13T05:08:46.527Z,97206.50
2023-03-13T05:14:04.595Z,97198.34
2023-03-13T05:19:23.280Z,97205.03
2023-03-13T05:24:38.356Z,97205.81
2023-03-13T05:29:54.005Z,97219.13
2023-03-13T05:35:19.363Z,97206.84
2023-03-13T05:40:24.378Z,97204.63
2023-03-13T05:45:43.539Z,97191.03
2023-03-13T05:50:51.737Z,97182.88
2023-03-13T05:56:17.013Z,97178.31
2023-03-13T06:01:39.056Z,97181.03
2023-03-13T06:06:50.660Z,97180.47
2023-03-13T06:11:55.007Z,97187.25
2023-03-13T06:16:57.824Z,97196.81
2023-03-13T06:22:02.324Z,97199.25
2023-03-13T06:27:04.420Z,97205.59
2023-03-13T06:32:07.232Z,97203.78
2023-03-13T06:37:09.437Z,97187.16
2023-03-13T06:42:11.496Z,97178.97
2023-03-13T06:47:15.534Z,97189.41
2023-03-13T06:52:19.381Z,97194.69
2023-03-13T06:57:22.406Z,97192.28
2023-03-13T07:02:24.720Z,97201.97
2023-03-13T07:07:31.688Z,97201.69
2023-03-13T07:12:37.858Z,97210.91
2023-03-13T07:17:39.987Z,97209.88
2023-03-13T07:22:42.007Z,97201.97
2023-03-13T07:27:44.027Z,97207.72
2023-03-13T07:32:46.224Z,97199.56
2023-03-13T07:37:48.661Z,97195.59
2023-03-13T07:42:50.838Z,97186.50
2023-03-13T07:47:57.673Z,97189.22
2023-03-13T07:52:59.727Z,97169.09
2023-03-13T07:58:01.771Z,97171.69
2023-03-13T08:03:07.489Z,97160.00
2023-03-13T08:08:10.282Z,97138.56
2023-03-13T08:13:12.797Z,97128.47
2023-03-13T08:18:14.824Z,97109.75
2023-03-13T08:23:16.989Z,97110.75
2023-03-13T08:28:19.392Z,97112.75
2023-03-13T08:33:21.873Z,97118.38
2023-03-13T08:38:24.039Z,97120.66
2023-03-13T08:43:31.388Z,97138.28
2023-03-13T08:48:36.579Z,97110.88
2023-03-13T08:53:40.962Z,97126.41
2023-03-13T08:58:43.562Z,97127.09
2023-03-13T09:03:46.009Z,97137.16
2023-03-13T09:08:48.731Z,97122.81
2023-03-13T09:13:51.766Z,97135.31
2023-03-13T09:18:53.948Z,97125.69
2023-03-13T09:23:56.597Z,97127.84
2023-03-13T09:28:59.645Z,97123.69
2023-03-13T09:34:02.749Z,97120.31
2023-03-13T09:39:04.839Z,97134.53
2023-03-13T09:44:20.206Z,97132.00
2023-03-13T09:49:48.832Z,97139.44
2023-03-13T09:55:05.474Z,97143.44
2023-03-13T10:00:30.172Z,97128.06
2023-03-13T10:05:33.778Z,97125.13
2023-03-13T10:11:04.648Z,97115.75
2023-03-13T10:16:23.038Z,97105.97
2023-03-13T10:21:37.135Z,97091.66
2023-03-13T10:26:40.003Z,97073.59
2023-03-13T10:31:55.272Z,97071.63
2023-03-13T10:37:01.992Z,97083.19
2023-03-13T10:42:29.089Z,97077.63
2023-03-13T10:47:35.876Z,97059.28
2023-03-13T10:52:44.942Z,97061.41
2023-03-13T10:58:04.782Z,97047.81
2023-03-13T11:03:20.150Z,97038.22
2023-03-13T11:08:29.153Z,97035.19
2023-03-13T11:13:37.230Z,97021.16
2023-03-13T11:18:48.526Z,97020.63
2023-03-13T11:24:04.537Z,97017.84
2023-03-13T11:29:27.086Z,96995.81
2023-03-13T11:34:55.060Z,96981.84
2023-03-13T11:40:31.961Z,96978.50
2023-03-13T11:45:49.231Z,96950.06
2023-03-13T11:51:49.636Z,96939.63
2023-03-13T11:56:58.609Z,96913.47
2023-03-13T12:02:25.104Z,96895.91
2023-03-13T12:08:01.860Z,96881.41
2023-03-13T12:13:18.572Z,96893.25
2023-03-13T12:18:46.002Z,96862.31
2023-03-13T12:24:40.357Z,96839.38
2023-03-13T12:30:05.423Z,96819.06
2023-03-13T12:35:29.049Z,96808.22
2023-03-13T12:40:55.308Z,96797.72
2023-03-13T12:45:57.318Z,96778.97
2023-03-13T12:51:33.737Z,96749.38
2023-03-13T12:57:14.536Z,96736.78
2023-03-13T13:02:25.657Z,96714.72
2023-03-13T13:07:38.685Z,96719.22
2023-03-13T13:12:47.052Z,96685.75
2023-03-13T13:18:22.035Z,96679.75
2023-03-13T13:23:34.271Z,96681.66
2023-03-13T13:28:36.595Z,96662.75
2023-03-13T13:33:41.141Z,96641.94
2023-03-13T13:38:43.553Z,96636.09
2023-03-13T13:43:50.084Z,96621.19
2023-03-13T13:49:07.785Z,96608.06
2023-03-13T13:54:18.845Z,96603.22
2023-03-13T13:59:21.139Z,96589.94
2023-03-13T14:04:36.264Z,96580.31
2023-03-13T14:09:46.493Z,96564.63
2023-03-13T14:14:48.694Z,96558.94
2023-03-13T14:19:51.090Z,96554.00
2023-03-13T14:24:58.989Z,96545.09
2023-03-13T14:30:09.457Z,96523.75
2023-03-13T14:35:20.969Z,96514.22
2023-03-13T14:40:33.370Z,96507.59
2023-03-13T14:45:37.179Z,96488.91
2023-03-13T14:50:45.888Z,96468.56
2023-03-13T14:55:49.482Z,96447.97
2023-03-13T15:00:51.974Z,96446.28
2023-03-13T15:06:12.537Z,96443.25
2023-03-13T15:11:29.034Z,96419.63
2023-03-13T15:16:31.174Z,96407.31
2023-03-13T15:21:35.065Z,96402.84
2023-03-13T15:26:37.101Z,96362.03
2023-03-13T15:31:40.180Z,96364.72
2023-03-13T15:36:42.785Z,96336.41
2023-03-13T15:41:44.916Z,96326.75
2023-03-13T15:46:48.105Z,96314.66
2023-03-13T15:51:50.814Z,96311.69
2023-03-13T15:56:53.068Z,96311.28
2023-03-13T16:01:55.061Z,96308.72
2023-03-13T16:06:58.171Z,96309.56
2023-03-13T16:12:00.281Z,96285.16
2023-03-13T16:17:10.537Z,96262.41
2023-03-13T16:22:12.977Z,96254.44
2023-03-13T16:27:18.060Z,96238.63
2023-03-13T16:32:24.435Z,96245.53
2023-03-13T16:37:26.519Z,96232.69
2023-03-13T16:42:28.542Z,96242.22
2023-03-13T16:47:31.717Z,96248.25
2023-03-13T16:52:33.785Z,96238.38
2023-03-13T16:57:36.654Z,96230.72
2023-03-13T17:02:39.229Z,96214.59
2023-03-13T17:07:43.233Z,96210.06
2023-03-13T17:12:45.610Z,96208.53
2023-03-13T17:17:52.759Z,96203.59
2023-03-13T17:22:56.668Z,96201.97
2023-03-13T17:27:59.121Z,96186.78
2023-03-13T17:33:01.260Z,96180.88
2023-03-13T17:38:03.389Z,96165.22
2023-03-13T17:43:05.696Z,96167.59
2023-03-13T17:48:13.376Z,96139.63
2023-03-13T17:53:15.529Z,96132.53
2023-03-13T17:58:18.467Z,96121.47
2023-03-13T18:03:20.795Z,96103.16
2023-03-13T18:08:23.076Z,96092.00
2023-03-13T18:13:25.122Z,96076.47
2023-03-13T18:18:27.241Z,96067.91
2023-03-13T18:23:29.548Z,96091.75
2023-03-13T18:28:31.647Z,96098.06
2023-03-13T18:33:33.675Z,96103.63
2023-03-13T18:38:35.874Z,96154.03
2023-03-13T18:43:38.292Z,96253.22
2023-03-13T18:48:40.315Z,96277.38
2023-03-13T18:53:43.378Z,96205.44
2023-03-13T18:58:50.146Z,96258.28
2023-03-13T19:03:53.449Z,96138.47
2023-03-13T19:09:42.812Z,96132.13
2023-03-13T19:14:42.711Z,96141.34
2023-03-13T19:19:45.122Z,96166.44
2023-03-13T19:24:47.636Z,96169.91
2023-03-13T19:29:50.443Z,96166.22
2023-03-13T19:34:53.139Z,96187.34
2023-03-13T19:39:55.523Z,96192.34
2023-03-13T19:44:57.912Z,96267.03
2023-03-13T19:50:00.421Z,96247.66
2023-03-13T19:55:05.070Z,96300.91
2023-03-13T20:00:14.068Z,96365.75
2023-03-13T20:05:16.761Z,96444.06
2023-03-13T20:10:19.481Z,96456.06
2023-03-13T20:15:22.400Z,96489.59
2023-03-13T20:20:24.803Z,96519.66
2023-03-13T20:25:28.760Z,96543.47
2023-03-13T20:30:31.270Z,96553.81
2023-03-13T20:35:34.208Z,96551.63
2023-03-13T20:40:37.163Z,96561.47
2023-03-13T20:45:39.581Z,96590.66
2023-03-13T20:50:42.768Z,96582.03
2023-03-13T20:55:45.562Z,96566.66
2023-03-13T21:00:48.909Z,96552.13
2023-03-13T21:05:51.677Z,96549.53
2023-03-13T21:10:54.134Z,96531.78
2023-03-13T21:16:03.294Z,96495.84
2023-03-13T21:21:08.263Z,96562.84
2023-03-13T21:26:10.871Z,96609.31
2023-03-13T21:31:16.199Z,96610.31
2023-03-13T21:36:21.300Z,96571.88
2023-03-13T21:41:23.875Z,96479.94
2023-03-13T21:46:33.396Z,96512.63
2023-03-13T21:51:35.860Z,96526.81
2023-03-13T21:56:38.488Z,96508.78
2023-03-13T22:01:42.407Z,96478.44
2023-03-13T22:06:44.948Z,96423.53
2023-03-13T22:11:47.536Z,96390.66
2023-03-13T22:16:50.446Z,96420.53
2023-03-13T22:21:53.059Z,96457.63
2023-03-13T22:26:55.476Z,96412.41
2023-03-13T22:31:57.983Z,96372.75
2023-03-13T22:37:00.492Z,96361.75
2023-03-13T22:42:03.656Z,96313.75
2023-03-13T22:47:06.115Z,96329.72
2023-03-13T22:52:08.730Z,96370.91
2023-03-13T22:57:11.122Z,96398.22
2023-03-13T23:02:13.556Z,96419.38
2023-03-13T23:07:16.033Z,96413.94
2023-03-13T23:12:18.562Z,96438.38
2023-03-13T23:17:21.577Z,96449.50
2023-03-13T23:22:29.107Z,96433.06
2023-03-13T23:27:32.066Z,96388.28
2023-03-13T23:32:39.401Z,96357.34
2023-03-13T23:37:41.828Z,96379.06
2023-03-13T23:42:50.512Z,96419.94
2023-03-13T23:47:53.978Z,96430.06
2023-03-13T23:52:56.352Z,96426.06
2023-03-13T23:57:58.895Z,96428.06
